sensor_id;sensor_type;location;lat;lon;timestamp;P1;durP1;ratioP1;P2;durP2;ratioP2
23230;SDS011;11784;49.818;8.632;2022-12-07T00:01:17;3.97;;;2.63;;
23230;SDS011;11784;49.818;8.632;2022-12-07T00:03:45;3.78;;;2.05;;
23230;SDS011;11784;49.818;8.632;2022-12-07T00:06:12;3.53;;;2.05;;
23230;SDS011;11784;49.818;8.632;2022-12-07T00:08:39;3.05;;;1.67;;
23230;SDS011;11784;49.818;8.632;2022-12-07T00:13:35;4.05;;;1.85;;
23230;SDS011;11784;49.818;8.632;2022-12-07T00:16:02;5.10;;;2.35;;
23230;SDS011;11784;49.818;8.632;2022-12-07T00:18:30;4.68;;;2.38;;
23230;SDS011;11784;49.818;8.632;2022-12-07T00:20:59;4.47;;;2.55;;
23230;SDS011;11784;49.818;8.632;2022-12-07T00:23:26;4.85;;;2.03;;
23230;SDS011;11784;49.818;8.632;2022-12-07T00:25:51;4.47;;;2.42;;
23230;SDS011;11784;49.818;8.632;2022-12-07T00:28:17;3.55;;;2.47;;
23230;SDS011;11784;49.818;8.632;2022-12-07T00:30:42;3.20;;;2.05;;
23230;SDS011;11784;49.818;8.632;2022-12-07T00:33:08;3.78;;;1.73;;
23230;SDS011;11784;49.818;8.632;2022-12-07T00:35:33;3.78;;;2.60;;
23230;SDS011;11784;49.818;8.632;2022-12-07T00:37:59;3.33;;;1.38;;
23230;SDS011;11784;49.818;8.632;2022-12-07T00:40:24;2.08;;;1.40;;
23230;SDS011;11784;49.818;8.632;2022-12-07T00:42:50;3.92;;;1.90;;
23230;SDS011;11784;49.818;8.632;2022-12-07T00:45:15;3.85;;;1.90;;
23230;SDS011;11784;49.818;8.632;2022-12-07T00:47:41;3.15;;;1.80;;
23230;SDS011;11784;49.818;8.632;2022-12-07T00:50:06;7.25;;;2.55;;
23230;SDS011;11784;49.818;8.632;2022-12-07T00:52:32;5.00;;;2.20;;
23230;SDS011;11784;49.818;8.632;2022-12-07T00:54:57;6.68;;;2.97;;
23230;SDS011;11784;49.818;8.632;2022-12-07T00:57:23;3.47;;;1.60;;
23230;SDS011;11784;49.818;8.632;2022-12-07T00:59:48;6.22;;;2.28;;
23230;SDS011;11784;49.818;8.632;2022-12-07T01:02:14;4.97;;;2.10;;
23230;SDS011;11784;49.818;8.632;2022-12-07T01:04:39;4.07;;;1.80;;
23230;SDS011;11784;49.818;8.632;2022-12-07T01:07:05;4.75;;;1.92;;
23230;SDS011;11784;49.818;8.632;2022-12-07T01:09:30;5.07;;;2.25;;
23230;SDS011;11784;49.818;8.632;2022-12-07T01:11:56;5.05;;;2.40;;
23230;SDS011;11784;49.818;8.632;2022-12-07T01:14:21;2.92;;;1.63;;
23230;SDS011;11784;49.818;8.632;2022-12-07T01:16:47;3.35;;;2.00;;
23230;SDS011;11784;49.818;8.632;2022-12-07T01:19:13;3.63;;;1.75;;
23230;SDS011;11784;49.818;8.632;2022-12-07T01:21:38;4.47;;;2.22;;
23230;SDS011;11784;49.818;8.632;2022-12-07T01:24:04;5.47;;;2.20;;
23230;SDS011;11784;49.818;8.632;2022-12-07T01:26:32;4.03;;;2.08;;
23230;SDS011;11784;49.818;8.632;2022-12-07T01:28:57;3.78;;;1.77;;
23230;SDS011;11784;49.818;8.632;2022-12-07T01:31:25;3.08;;;1.77;;
23230;SDS011;11784;49.818;8.632;2022-12-07T01:33:53;3.70;;;1.85;;
23230;SDS011;11784;49.818;8.632;2022-12-07T01:36:21;4.47;;;1.95;;
23230;SDS011;11784;49.818;8.632;2022-12-07T01:38:49;3.83;;;2.05;;
23230;SDS011;11784;49.818;8.632;2022-12-07T01:41:18;2.58;;;1.67;;
23230;SDS011;11784;49.818;8.632;2022-12-07T01:46:39;3.83;;;1.98;;
23230;SDS011;11784;49.818;8.632;2022-12-07T01:49:07;3.63;;;2.28;;
23230;SDS011;11784;49.818;8.632;2022-12-07T01:51:36;4.15;;;1.80;;
23230;SDS011;11784;49.818;8.632;2022-12-07T01:54:05;4.13;;;2.13;;
23230;SDS011;11784;49.818;8.632;2022-12-07T01:56:30;4.75;;;2.58;;
23230;SDS011;11784;49.818;8.632;2022-12-07T01:58:57;3.22;;;1.70;;
23230;SDS011;11784;49.818;8.632;2022-12-07T02:01:25;3.17;;;1.73;;
23230;SDS011;11784;49.818;8.632;2022-12-07T02:03:50;4.53;;;1.90;;
23230;SDS011;11784;49.818;8.632;2022-12-07T02:06:19;3.58;;;1.80;;
23230;SDS011;11784;49.818;8.632;2022-12-07T02:08:48;4.60;;;2.08;;
23230;SDS011;11784;49.818;8.632;2022-12-07T02:11:14;3.35;;;1.60;;
23230;SDS011;11784;49.818;8.632;2022-12-07T02:13:41;3.25;;;1.27;;
23230;SDS011;11784;49.818;8.632;2022-12-07T02:19:09;3.80;;;1.75;;
23230;SDS011;11784;49.818;8.632;2022-12-07T02:21:46;4.32;;;1.73;;
23230;SDS011;11784;49.818;8.632;2022-12-07T02:24:36;3.20;;;1.63;;
23230;SDS011;11784;49.818;8.632;2022-12-07T02:35:24;2.70;;;1.83;;
23230;SDS011;11784;49.818;8.632;2022-12-07T02:43:07;4.20;;;1.92;;
23230;SDS011;11784;49.818;8.632;2022-12-07T02:45:39;4.63;;;1.95;;
23230;SDS011;11784;49.818;8.632;2022-12-07T02:48:07;5.38;;;1.98;;
23230;SDS011;11784;49.818;8.632;2022-12-07T02:50:35;3.83;;;1.95;;
23230;SDS011;11784;49.818;8.632;2022-12-07T02:53:00;4.38;;;2.05;;
23230;SDS011;11784;49.818;8.632;2022-12-07T02:55:31;3.45;;;2.10;;
23230;SDS011;11784;49.818;8.632;2022-12-07T03:00:34;4.20;;;1.90;;
23230;SDS011;11784;49.818;8.632;2022-12-07T03:03:10;4.45;;;2.30;;
23230;SDS011;11784;49.818;8.632;2022-12-07T03:05:51;3.42;;;1.92;;
23230;SDS011;11784;49.818;8.632;2022-12-07T03:08:37;3.22;;;1.70;;
23230;SDS011;11784;49.818;8.632;2022-12-07T03:11:37;5.57;;;1.80;;
23230;SDS011;11784;49.818;8.632;2022-12-07T03:14:18;4.45;;;2.13;;
23230;SDS011;11784;49.818;8.632;2022-12-07T03:19:23;5.70;;;1.80;;
23230;SDS011;11784;49.818;8.632;2022-12-07T03:21:57;6.72;;;2.13;;
23230;SDS011;11784;49.818;8.632;2022-12-07T03:24:29;4.20;;;1.80;;
23230;SDS011;11784;49.818;8.632;2022-12-07T03:27:09;3.70;;;1.90;;
23230;SDS011;11784;49.818;8.632;2022-12-07T03:29:43;3.40;;;1.75;;
23230;SDS011;11784;49.818;8.632;2022-12-07T03:32:14;3.10;;;1.67;;
23230;SDS011;11784;49.818;8.632;2022-12-07T03:34:50;3.75;;;1.63;;
23230;SDS011;11784;49.818;8.632;2022-12-07T03:37:26;2.80;;;1.73;;
23230;SDS011;11784;49.818;8.632;2022-12-07T03:42:30;3.53;;;2.03;;
23230;SDS011;11784;49.818;8.632;2022-12-07T03:44:57;4.07;;;1.95;;
23230;SDS011;11784;49.818;8.632;2022-12-07T03:52:55;3.88;;;1.70;;
23230;SDS011;11784;49.818;8.632;2022-12-07T03:55:30;5.05;;;1.95;;
23230;SDS011;11784;49.818;8.632;2022-12-07T03:58:00;3.40;;;2.10;;
23230;SDS011;11784;49.818;8.632;2022-12-07T04:00:30;3.25;;;2.38;;
23230;SDS011;11784;49.818;8.632;2022-12-07T04:02:56;5.65;;;2.58;;
23230;SDS011;11784;49.818;8.632;2022-12-07T04:05:22;4.28;;;2.15;;
23230;SDS011;11784;49.818;8.632;2022-12-07T04:07:48;4.78;;;1.98;;
23230;SDS011;11784;49.818;8.632;2022-12-07T04:10:14;4.63;;;2.60;;
23230;SDS011;11784;49.818;8.632;2022-12-07T04:12:39;5.25;;;1.92;;
23230;SDS011;11784;49.818;8.632;2022-12-07T04:15:05;3.95;;;2.17;;
23230;SDS011;11784;49.818;8.632;2022-12-07T04:17:31;4.75;;;2.28;;
23230;SDS011;11784;49.818;8.632;2022-12-07T04:19:57;13.18;;;2.10;;
23230;SDS011;11784;49.818;8.632;2022-12-07T04:22:22;2.40;;;1.52;;
23230;SDS011;11784;49.818;8.632;2022-12-07T04:24:48;4.75;;;1.67;;
23230;SDS011;11784;49.818;8.632;2022-12-07T04:27:13;5.72;;;2.20;;
23230;SDS011;11784;49.818;8.632;2022-12-07T04:29:39;3.88;;;1.95;;
23230;SDS011;11784;49.818;8.632;2022-12-07T04:32:05;3.58;;;1.98;;
23230;SDS011;11784;49.818;8.632;2022-12-07T04:34:30;3.95;;;1.25;;
23230;SDS011;11784;49.818;8.632;2022-12-07T04:36:56;3.45;;;1.85;;
23230;SDS011;11784;49.818;8.632;2022-12-07T04:39:25;2.28;;;1.70;;
23230;SDS011;11784;49.818;8.632;2022-12-07T04:41:53;3.13;;;1.75;;
23230;SDS011;11784;49.818;8.632;2022-12-07T04:44:20;5.35;;;2.08;;
23230;SDS011;11784;49.818;8.632;2022-12-07T04:46:46;3.42;;;2.08;;
23230;SDS011;11784;49.818;8.632;2022-12-07T04:49:12;3.00;;;1.67;;
23230;SDS011;11784;49.818;8.632;2022-12-07T04:51:38;6.28;;;2.42;;
23230;SDS011;11784;49.818;8.632;2022-12-07T04:54:03;4.22;;;1.52;;
23230;SDS011;11784;49.818;8.632;2022-12-07T04:56:29;3.60;;;2.00;;
23230;SDS011;11784;49.818;8.632;2022-12-07T04:58:55;3.10;;;1.60;;
23230;SDS011;11784;49.818;8.632;2022-12-07T05:01:21;4.55;;;2.15;;
23230;SDS011;11784;49.818;8.632;2022-12-07T05:03:47;2.63;;;1.80;;
23230;SDS011;11784;49.818;8.632;2022-12-07T05:06:13;3.25;;;1.85;;
23230;SDS011;11784;49.818;8.632;2022-12-07T05:08:39;3.58;;;2.20;;
23230;SDS011;11784;49.818;8.632;2022-12-07T05:11:05;12.10;;;3.13;;
23230;SDS011;11784;49.818;8.632;2022-12-07T05:13:32;4.13;;;1.75;;
23230;SDS011;11784;49.818;8.632;2022-12-07T05:15:58;3.55;;;1.98;;
23230;SDS011;11784;49.818;8.632;2022-12-07T05:18:24;2.70;;;1.75;;
23230;SDS011;11784;49.818;8.632;2022-12-07T05:20:49;7.68;;;2.25;;
23230;SDS011;11784;49.818;8.632;2022-12-07T05:23:16;4.75;;;2.65;;
23230;SDS011;11784;49.818;8.632;2022-12-07T05:25:41;3.08;;;2.00;;
23230;SDS011;11784;49.818;8.632;2022-12-07T05:28:07;3.50;;;1.67;;
23230;SDS011;11784;49.818;8.632;2022-12-07T05:30:33;4.85;;;1.63;;
23230;SDS011;11784;49.818;8.632;2022-12-07T05:32:58;3.30;;;1.60;;
23230;SDS011;11784;49.818;8.632;2022-12-07T05:35:24;3.25;;;1.77;;
23230;SDS011;11784;49.818;8.632;2022-12-07T05:37:49;2.13;;;1.67;;
23230;SDS011;11784;49.818;8.632;2022-12-07T05:40:15;5.35;;;1.70;;
23230;SDS011;11784;49.818;8.632;2022-12-07T05:42:41;4.25;;;2.17;;
23230;SDS011;11784;49.818;8.632;2022-12-07T05:45:07;2.70;;;1.30;;
23230;SDS011;11784;49.818;8.632;2022-12-07T05:47:34;2.70;;;1.80;;
23230;SDS011;11784;49.818;8.632;2022-12-07T05:50:00;3.67;;;1.65;;
23230;SDS011;11784;49.818;8.632;2022-12-07T05:52:26;3.50;;;2.03;;
23230;SDS011;11784;49.818;8.632;2022-12-07T05:54:52;4.30;;;1.73;;
23230;SDS011;11784;49.818;8.632;2022-12-07T05:57:17;8.70;;;2.28;;
23230;SDS011;11784;49.818;8.632;2022-12-07T05:59:43;2.90;;;1.60;;
23230;SDS011;11784;49.818;8.632;2022-12-07T06:02:10;4.55;;;1.92;;
23230;SDS011;11784;49.818;8.632;2022-12-07T06:04:42;3.83;;;1.77;;
23230;SDS011;11784;49.818;8.632;2022-12-07T06:07:10;6.72;;;1.60;;
23230;SDS011;11784;49.818;8.632;2022-12-07T06:09:37;5.45;;;2.00;;
23230;SDS011;11784;49.818;8.632;2022-12-07T06:12:03;3.05;;;1.85;;
23230;SDS011;11784;49.818;8.632;2022-12-07T06:15:05;5.07;;;1.98;;
23230;SDS011;11784;49.818;8.632;2022-12-07T06:17:31;3.50;;;2.03;;
23230;SDS011;11784;49.818;8.632;2022-12-07T06:19:56;3.65;;;1.63;;
23230;SDS011;11784;49.818;8.632;2022-12-07T06:22:22;3.75;;;2.10;;
23230;SDS011;11784;49.818;8.632;2022-12-07T06:24:47;7.22;;;2.20;;
23230;SDS011;11784;49.818;8.632;2022-12-07T06:27:13;2.45;;;1.50;;
23230;SDS011;11784;49.818;8.632;2022-12-07T06:29:39;3.63;;;1.70;;
23230;SDS011;11784;49.818;8.632;2022-12-07T06:32:05;2.00;;;1.40;;
23230;SDS011;11784;49.818;8.632;2022-12-07T06:34:30;3.83;;;1.98;;
23230;SDS011;11784;49.818;8.632;2022-12-07T06:36:56;3.28;;;1.85;;
23230;SDS011;11784;49.818;8.632;2022-12-07T06:39:22;2.95;;;1.98;;
23230;SDS011;11784;49.818;8.632;2022-12-07T06:41:49;5.00;;;2.20;;
23230;SDS011;11784;49.818;8.632;2022-12-07T06:44:16;3.67;;;1.98;;
23230;SDS011;11784;49.818;8.632;2022-12-07T06:46:43;3.95;;;2.00;;
23230;SDS011;11784;49.818;8.632;2022-12-07T06:49:09;4.10;;;1.67;;
23230;SDS011;11784;49.818;8.632;2022-12-07T06:51:34;3.03;;;1.90;;
23230;SDS011;11784;49.818;8.632;2022-12-07T06:54:02;5.07;;;2.63;;
23230;SDS011;11784;49.818;8.632;2022-12-07T06:56:28;4.07;;;1.83;;
23230;SDS011;11784;49.818;8.632;2022-12-07T06:58:54;3.22;;;1.88;;
23230;SDS011;11784;49.818;8.632;2022-12-07T07:01:20;6.50;;;1.73;;
23230;SDS011;11784;49.818;8.632;2022-12-07T07:03:45;5.13;;;2.72;;
23230;SDS011;11784;49.818;8.632;2022-12-07T07:06:11;4.50;;;2.30;;
23230;SDS011;11784;49.818;8.632;2022-12-07T07:08:38;7.20;;;2.83;;
23230;SDS011;11784;49.818;8.632;2022-12-07T07:11:04;3.05;;;1.90;;
23230;SDS011;11784;49.818;8.632;2022-12-07T07:13:31;6.18;;;2.03;;
23230;SDS011;11784;49.818;8.632;2022-12-07T07:15:58;3.63;;;1.70;;
23230;SDS011;11784;49.818;8.632;2022-12-07T07:18:24;4.18;;;2.00;;
23230;SDS011;11784;49.818;8.632;2022-12-07T07:20:50;3.53;;;2.08;;
23230;SDS011;11784;49.818;8.632;2022-12-07T07:23:16;5.05;;;2.33;;
23230;SDS011;11784;49.818;8.632;2022-12-07T07:25:42;5.38;;;2.15;;
23230;SDS011;11784;49.818;8.632;2022-12-07T07:28:07;2.63;;;1.60;;
23230;SDS011;11784;49.818;8.632;2022-12-07T07:30:33;2.45;;;1.50;;
23230;SDS011;11784;49.818;8.632;2022-12-07T07:32:59;3.83;;;2.05;;
23230;SDS011;11784;49.818;8.632;2022-12-07T07:35:26;3.58;;;1.83;;
23230;SDS011;11784;49.818;8.632;2022-12-07T07:37:53;3.50;;;2.42;;
23230;SDS011;11784;49.818;8.632;2022-12-07T07:40:19;4.15;;;2.17;;
23230;SDS011;11784;49.818;8.632;2022-12-07T07:42:49;3.67;;;1.90;;
23230;SDS011;11784;49.818;8.632;2022-12-07T07:45:15;5.45;;;2.05;;
23230;SDS011;11784;49.818;8.632;2022-12-07T07:47:41;5.10;;;2.50;;
23230;SDS011;11784;49.818;8.632;2022-12-07T07:50:07;4.03;;;1.50;;
23230;SDS011;11784;49.818;8.632;2022-12-07T07:52:32;4.13;;;2.17;;
23230;SDS011;11784;49.818;8.632;2022-12-07T07:54:58;4.07;;;2.08;;
23230;SDS011;11784;49.818;8.632;2022-12-07T07:57:23;2.70;;;1.50;;
23230;SDS011;11784;49.818;8.632;2022-12-07T07:59:49;4.75;;;1.88;;
23230;SDS011;11784;49.818;8.632;2022-12-07T08:02:17;4.25;;;1.75;;
23230;SDS011;11784;49.818;8.632;2022-12-07T08:04:45;5.22;;;2.38;;
23230;SDS011;11784;49.818;8.632;2022-12-07T08:07:11;2.92;;;1.83;;
23230;SDS011;11784;49.818;8.632;2022-12-07T08:09:37;4.90;;;2.40;;
23230;SDS011;11784;49.818;8.632;2022-12-07T08:12:03;4.60;;;2.15;;
23230;SDS011;11784;49.818;8.632;2022-12-07T08:14:29;3.58;;;1.98;;
23230;SDS011;11784;49.818;8.632;2022-12-07T08:16:55;3.65;;;2.03;;
23230;SDS011;11784;49.818;8.632;2022-12-07T08:19:21;5.13;;;2.55;;
23230;SDS011;11784;49.818;8.632;2022-12-07T08:21:46;4.57;;;1.80;;
23230;SDS011;11784;49.818;8.632;2022-12-07T08:24:12;4.80;;;2.35;;
23230;SDS011;11784;49.818;8.632;2022-12-07T08:26:38;3.83;;;1.85;;
23230;SDS011;11784;49.818;8.632;2022-12-07T08:29:08;4.32;;;2.13;;
23230;SDS011;11784;49.818;8.632;2022-12-07T08:31:34;2.78;;;2.17;;
23230;SDS011;11784;49.818;8.632;2022-12-07T08:34:00;5.70;;;2.47;;
23230;SDS011;11784;49.818;8.632;2022-12-07T08:36:25;2.83;;;1.70;;
23230;SDS011;11784;49.818;8.632;2022-12-07T08:38:51;3.15;;;2.08;;
23230;SDS011;11784;49.818;8.632;2022-12-07T08:41:16;4.72;;;2.28;;
23230;SDS011;11784;49.818;8.632;2022-12-07T08:43:42;4.13;;;1.88;;
23230;SDS011;11784;49.818;8.632;2022-12-07T08:48:38;3.67;;;2.15;;
23230;SDS011;11784;49.818;8.632;2022-12-07T08:51:07;4.30;;;2.35;;
23230;SDS011;11784;49.818;8.632;2022-12-07T08:53:32;2.95;;;2.00;;
23230;SDS011;11784;49.818;8.632;2022-12-07T08:55:59;4.20;;;2.22;;
23230;SDS011;11784;49.818;8.632;2022-12-07T08:58:25;3.63;;;1.63;;
23230;SDS011;11784;49.818;8.632;2022-12-07T09:00:51;4.65;;;2.33;;
23230;SDS011;11784;49.818;8.632;2022-12-07T09:03:16;8.48;;;2.72;;
23230;SDS011;11784;49.818;8.632;2022-12-07T09:05:42;5.95;;;2.30;;
23230;SDS011;11784;49.818;8.632;2022-12-07T09:08:07;4.18;;;2.78;;
23230;SDS011;11784;49.818;8.632;2022-12-07T09:10:33;3.50;;;1.80;;
23230;SDS011;11784;49.818;8.632;2022-12-07T09:12:59;4.43;;;1.90;;
23230;SDS011;11784;49.818;8.632;2022-12-07T09:15:27;3.30;;;1.80;;
23230;SDS011;11784;49.818;8.632;2022-12-07T09:17:54;3.75;;;2.20;;
23230;SDS011;11784;49.818;8.632;2022-12-07T09:20:19;5.35;;;2.30;;
23230;SDS011;11784;49.818;8.632;2022-12-07T09:22:46;4.13;;;1.85;;
23230;SDS011;11784;49.818;8.632;2022-12-07T09:25:11;4.00;;;2.50;;
23230;SDS011;11784;49.818;8.632;2022-12-07T09:27:37;4.68;;;2.13;;
23230;SDS011;11784;49.818;8.632;2022-12-07T09:30:03;4.40;;;2.53;;
23230;SDS011;11784;49.818;8.632;2022-12-07T09:32:29;4.07;;;2.30;;
23230;SDS011;11784;49.818;8.632;2022-12-07T09:34:55;6.15;;;2.35;;
23230;SDS011;11784;49.818;8.632;2022-12-07T09:37:29;3.88;;;1.83;;
23230;SDS011;11784;49.818;8.632;2022-12-07T09:39:56;7.28;;;2.40;;
23230;SDS011;11784;49.818;8.632;2022-12-07T09:42:36;5.78;;;3.17;;
23230;SDS011;11784;49.818;8.632;2022-12-07T09:45:12;5.95;;;2.45;;
23230;SDS011;11784;49.818;8.632;2022-12-07T09:47:40;5.95;;;2.50;;
23230;SDS011;11784;49.818;8.632;2022-12-07T09:50:16;7.25;;;2.58;;
23230;SDS011;11784;49.818;8.632;2022-12-07T09:52:47;5.43;;;2.22;;
23230;SDS011;11784;49.818;8.632;2022-12-07T09:55:19;6.30;;;3.10;;
23230;SDS011;11784;49.818;8.632;2022-12-07T09:57:51;9.73;;;2.53;;
23230;SDS011;11784;49.818;8.632;2022-12-07T10:00:19;5.07;;;2.85;;
23230;SDS011;11784;49.818;8.632;2022-12-07T10:02:47;4.80;;;2.63;;
23230;SDS011;11784;49.818;8.632;2022-12-07T10:05:21;4.38;;;2.03;;
23230;SDS011;11784;49.818;8.632;2022-12-07T10:08:04;6.05;;;2.88;;
23230;SDS011;11784;49.818;8.632;2022-12-07T10:10:31;4.88;;;2.78;;
23230;SDS011;11784;49.818;8.632;2022-12-07T10:12:59;4.38;;;2.53;;
23230;SDS011;11784;49.818;8.632;2022-12-07T10:18:17;4.75;;;2.72;;
23230;SDS011;11784;49.818;8.632;2022-12-07T10:20:44;5.93;;;2.42;;
23230;SDS011;11784;49.818;8.632;2022-12-07T10:23:17;6.07;;;2.72;;
23230;SDS011;11784;49.818;8.632;2022-12-07T10:25:43;6.53;;;2.78;;
23230;SDS011;11784;49.818;8.632;2022-12-07T10:28:17;6.38;;;3.30;;
23230;SDS011;11784;49.818;8.632;2022-12-07T10:30:59;4.90;;;2.63;;
23230;SDS011;11784;49.818;8.632;2022-12-07T10:38:45;9.70;;;2.70;;
23230;SDS011;11784;49.818;8.632;2022-12-07T10:41:13;4.68;;;2.30;;
23230;SDS011;11784;49.818;8.632;2022-12-07T10:43:46;9.57;;;3.75;;
23230;SDS011;11784;49.818;8.632;2022-12-07T10:49:07;7.13;;;2.50;;
23230;SDS011;11784;49.818;8.632;2022-12-07T10:52:12;5.18;;;2.42;;
23230;SDS011;11784;49.818;8.632;2022-12-07T10:57:53;4.90;;;2.50;;
23230;SDS011;11784;49.818;8.632;2022-12-07T11:00:21;8.93;;;2.38;;
23230;SDS011;11784;49.818;8.632;2022-12-07T11:13:48;4.97;;;2.50;;
23230;SDS011;11784;49.818;8.632;2022-12-07T11:16:27;5.65;;;2.10;;
23230;SDS011;11784;49.818;8.632;2022-12-07T11:19:23;6.13;;;3.35;;
23230;SDS011;11784;49.818;8.632;2022-12-07T11:25:20;3.45;;;1.90;;
23230;SDS011;11784;49.818;8.632;2022-12-07T11:31:12;6.10;;;2.88;;
23230;SDS011;11784;49.818;8.632;2022-12-07T11:33:47;4.60;;;2.17;;
23230;SDS011;11784;49.818;8.632;2022-12-07T11:36:49;4.05;;;2.35;;
23230;SDS011;11784;49.818;8.632;2022-12-07T11:39:23;4.68;;;2.35;;
23230;SDS011;11784;49.818;8.632;2022-12-07T11:42:00;5.60;;;2.30;;
23230;SDS011;11784;49.818;8.632;2022-12-07T11:44:49;7.03;;;3.00;;
23230;SDS011;11784;49.818;8.632;2022-12-07T11:55:48;4.10;;;2.17;;
23230;SDS011;11784;49.818;8.632;2022-12-07T12:03:30;5.55;;;2.05;;
23230;SDS011;11784;49.818;8.632;2022-12-07T12:06:01;5.90;;;2.70;;
23230;SDS011;11784;49.818;8.632;2022-12-07T12:08:28;8.35;;;2.75;;
23230;SDS011;11784;49.818;8.632;2022-12-07T12:11:16;5.03;;;2.43;;
23230;SDS011;11784;49.818;8.632;2022-12-07T12:16:37;3.53;;;2.17;;
23230;SDS011;11784;49.818;8.632;2022-12-07T12:22:36;6.65;;;2.13;;
23230;SDS011;11784;49.818;8.632;2022-12-07T12:25:05;3.13;;;1.83;;
23230;SDS011;11784;49.818;8.632;2022-12-07T12:27:40;7.35;;;2.03;;
23230;SDS011;11784;49.818;8.632;2022-12-07T12:30:46;3.72;;;1.90;;
23230;SDS011;11784;49.818;8.632;2022-12-07T12:33:23;2.80;;;1.75;;
23230;SDS011;11784;49.818;8.632;2022-12-07T12:46:46;1.10;;;0.93;;
23230;SDS011;11784;49.818;8.632;2022-12-07T12:51:41;3.80;;;1.45;;
23230;SDS011;11784;49.818;8.632;2022-12-07T12:54:15;5.72;;;1.80;;
23230;SDS011;11784;49.818;8.632;2022-12-07T12:56:58;7.43;;;2.20;;
23230;SDS011;11784;49.818;8.632;2022-12-07T12:59:31;4.45;;;2.08;;
23230;SDS011;11784;49.818;8.632;2022-12-07T13:04:53;4.82;;;2.42;;
23230;SDS011;11784;49.818;8.632;2022-12-07T13:13:00;8.18;;;1.98;;
23230;SDS011;11784;49.818;8.632;2022-12-07T13:23:35;0.98;;;0.60;;
23230;SDS011;11784;49.818;8.632;2022-12-07T13:34:33;2.22;;;0.95;;
23230;SDS011;11784;49.818;8.632;2022-12-07T13:37:12;4.28;;;1.20;;
23230;SDS011;11784;49.818;8.632;2022-12-07T13:39:51;2.13;;;0.60;;
23230;SDS011;11784;49.818;8.632;2022-12-07T13:42:29;1.90;;;0.82;;
23230;SDS011;11784;49.818;8.632;2022-12-07T13:45:01;1.52;;;0.50;;
23230;SDS011;11784;49.818;8.632;2022-12-07T13:47:48;2.92;;;0.82;;
23230;SDS011;11784;49.818;8.632;2022-12-07T13:50:28;1.52;;;0.85;;
23230;SDS011;11784;49.818;8.632;2022-12-07T13:52:57;1.05;;;0.82;;
23230;SDS011;11784;49.818;8.632;2022-12-07T13:55:24;9.05;;;0.95;;
23230;SDS011;11784;49.818;8.632;2022-12-07T13:57:51;3.13;;;1.13;;
23230;SDS011;11784;49.818;8.632;2022-12-07T14:00:22;1.10;;;0.80;;
23230;SDS011;11784;49.818;8.632;2022-12-07T14:03:04;3.63;;;1.13;;
23230;SDS011;11784;49.818;8.632;2022-12-07T14:06:02;2.22;;;0.70;;
23230;SDS011;11784;49.818;8.632;2022-12-07T14:08:38;1.30;;;0.75;;
23230;SDS011;11784;49.818;8.632;2022-12-07T14:11:03;1.45;;;0.80;;
23230;SDS011;11784;49.818;8.632;2022-12-07T14:13:33;2.08;;;1.05;;
23230;SDS011;11784;49.818;8.632;2022-12-07T14:16:01;1.63;;;1.00;;
23230;SDS011;11784;49.818;8.632;2022-12-07T14:23:35;2.55;;;0.85;;
23230;SDS011;11784;49.818;8.632;2022-12-07T14:26:07;2.42;;;1.17;;
23230;SDS011;11784;49.818;8.632;2022-12-07T14:28:40;2.40;;;1.23;;
23230;SDS011;11784;49.818;8.632;2022-12-07T14:31:14;1.60;;;0.70;;
23230;SDS011;11784;49.818;8.632;2022-12-07T14:33:46;1.83;;;0.85;;
23230;SDS011;11784;49.818;8.632;2022-12-07T14:36:12;3.45;;;0.80;;
23230;SDS011;11784;49.818;8.632;2022-12-07T14:38:39;1.73;;;0.80;;
23230;SDS011;11784;49.818;8.632;2022-12-07T14:41:06;0.80;;;0.63;;
23230;SDS011;11784;49.818;8.632;2022-12-07T14:44:09;0.40;;;0.40;;
23230;SDS011;11784;49.818;8.632;2022-12-07T14:46:36;0.50;;;0.40;;
23230;SDS011;11784;49.818;8.632;2022-12-07T14:49:02;1.55;;;0.70;;
23230;SDS011;11784;49.818;8.632;2022-12-07T14:51:28;2.38;;;0.82;;
23230;SDS011;11784;49.818;8.632;2022-12-07T14:53:54;1.80;;;1.30;;
23230;SDS011;11784;49.818;8.632;2022-12-07T14:56:20;4.45;;;1.30;;
23230;SDS011;11784;49.818;8.632;2022-12-07T14:58:45;2.05;;;0.90;;
23230;SDS011;11784;49.818;8.632;2022-12-07T15:01:13;4.68;;;0.63;;
23230;SDS011;11784;49.818;8.632;2022-12-07T15:03:38;0.98;;;0.60;;
23230;SDS011;11784;49.818;8.632;2022-12-07T15:06:04;2.25;;;1.00;;
23230;SDS011;11784;49.818;8.632;2022-12-07T15:08:31;2.55;;;0.80;;
23230;SDS011;11784;49.818;8.632;2022-12-07T15:10:56;4.25;;;1.13;;
23230;SDS011;11784;49.818;8.632;2022-12-07T15:13:22;2.95;;;1.00;;
23230;SDS011;11784;49.818;8.632;2022-12-07T15:16:10;2.38;;;0.75;;
23230;SDS011;11784;49.818;8.632;2022-12-07T15:18:37;3.40;;;1.17;;
23230;SDS011;11784;49.818;8.632;2022-12-07T15:21:03;1.98;;;0.98;;
23230;SDS011;11784;49.818;8.632;2022-12-07T15:23:29;0.90;;;0.70;;
23230;SDS011;11784;49.818;8.632;2022-12-07T15:25:56;0.73;;;0.43;;
23230;SDS011;11784;49.818;8.632;2022-12-07T15:28:21;1.70;;;0.95;;
23230;SDS011;11784;49.818;8.632;2022-12-07T15:30:48;1.52;;;0.80;;
23230;SDS011;11784;49.818;8.632;2022-12-07T15:33:14;2.17;;;0.93;;
23230;SDS011;11784;49.818;8.632;2022-12-07T15:35:40;2.25;;;0.80;;
23230;SDS011;11784;49.818;8.632;2022-12-07T15:38:06;2.28;;;0.85;;
23230;SDS011;11784;49.818;8.632;2022-12-07T15:40:33;2.17;;;1.30;;
23230;SDS011;11784;49.818;8.632;2022-12-07T15:42:59;1.27;;;0.70;;
23230;SDS011;11784;49.818;8.632;2022-12-07T15:45:24;2.45;;;1.17;;
23230;SDS011;11784;49.818;8.632;2022-12-07T15:47:50;2.70;;;1.05;;
23230;SDS011;11784;49.818;8.632;2022-12-07T15:50:15;3.33;;;0.60;;
23230;SDS011;11784;49.818;8.632;2022-12-07T15:52:41;2.63;;;0.70;;
23230;SDS011;11784;49.818;8.632;2022-12-07T15:55:07;1.23;;;0.60;;
23230;SDS011;11784;49.818;8.632;2022-12-07T15:57:35;3.10;;;0.90;;
23230;SDS011;11784;49.818;8.632;2022-12-07T16:00:06;1.45;;;0.77;;
23230;SDS011;11784;49.818;8.632;2022-12-07T16:02:33;3.35;;;0.88;;
23230;SDS011;11784;49.818;8.632;2022-12-07T16:04:59;2.20;;;1.13;;
23230;SDS011;11784;49.818;8.632;2022-12-07T16:07:24;1.25;;;0.50;;
23230;SDS011;11784;49.818;8.632;2022-12-07T16:09:50;5.13;;;1.98;;
23230;SDS011;11784;49.818;8.632;2022-12-07T16:12:16;4.88;;;1.92;;
23230;SDS011;11784;49.818;8.632;2022-12-07T16:14:42;5.82;;;1.92;;
23230;SDS011;11784;49.818;8.632;2022-12-07T16:17:08;3.50;;;1.83;;
23230;SDS011;11784;49.818;8.632;2022-12-07T16:19:34;2.38;;;1.42;;
23230;SDS011;11784;49.818;8.632;2022-12-07T16:22:01;2.70;;;1.27;;
23230;SDS011;11784;49.818;8.632;2022-12-07T16:24:28;2.00;;;1.23;;
23230;SDS011;11784;49.818;8.632;2022-12-07T16:26:53;7.53;;;1.75;;
23230;SDS011;11784;49.818;8.632;2022-12-07T16:29:19;1.98;;;1.10;;
23230;SDS011;11784;49.818;8.632;2022-12-07T16:31:46;4.72;;;1.30;;
23230;SDS011;11784;49.818;8.632;2022-12-07T16:34:12;1.85;;;1.08;;
23230;SDS011;11784;49.818;8.632;2022-12-07T16:36:37;5.30;;;0.82;;
23230;SDS011;11784;49.818;8.632;2022-12-07T16:39:03;1.92;;;1.08;;
23230;SDS011;11784;49.818;8.632;2022-12-07T16:41:30;2.28;;;1.25;;
23230;SDS011;11784;49.818;8.632;2022-12-07T16:43:55;2.13;;;1.23;;
23230;SDS011;11784;49.818;8.632;2022-12-07T16:46:21;1.52;;;0.85;;
23230;SDS011;11784;49.818;8.632;2022-12-07T16:48:46;2.55;;;1.10;;
23230;SDS011;11784;49.818;8.632;2022-12-07T16:51:13;4.95;;;1.13;;
23230;SDS011;11784;49.818;8.632;2022-12-07T16:53:39;2.88;;;1.48;;
23230;SDS011;11784;49.818;8.632;2022-12-07T16:56:13;2.42;;;1.17;;
23230;SDS011;11784;49.818;8.632;2022-12-07T16:58:43;1.27;;;0.70;;
23230;SDS011;11784;49.818;8.632;2022-12-07T17:01:10;2.75;;;1.10;;
23230;SDS011;11784;49.818;8.632;2022-12-07T17:03:37;9.05;;;1.40;;
23230;SDS011;11784;49.818;8.632;2022-12-07T17:06:02;1.15;;;0.60;;
23230;SDS011;11784;49.818;8.632;2022-12-07T17:08:28;4.82;;;1.02;;
23230;SDS011;11784;49.818;8.632;2022-12-07T17:10:56;1.00;;;0.63;;